Time;durP1;ratioP1;P1;durP2;ratioP2;P2;SDS_P1;SDS_P2;PMS_P1;PMS_P2;Temp;Humidity;BMP_temperature;BMP_pressure;BME280_temperature;BME280_humidity;BME280_pressure;Samples;Min_cycle;Max_cycle;Signal;HPM_P1;HPM_P2
2023/04/12 00:00:41;;;;;;;4.43;1.53;;;;;;;8.21;100.00;98188.59;5034268;28;20241;-64
2023/04/12 00:03:09;;;;;;;6.23;1.30;;;;;;;8.19;100.00;98183.53;5037173;28;20238;-65
2023/04/12 00:05:36;;;;;;;5.47;1.50;;;;;;;8.17;100.00;98184.66;5019217;28;20230;-66
2023/04/12 00:08:03;;;;;;;2.53;1.30;;;;;;;8.16;100.00;98180.41;5036497;28;20296;-65
2023/04/12 00:10:31;;;;;;;3.30;1.53;;;;;;;8.09;100.00;98170.59;5037692;28;20257;-65
2023/04/12 00:12:58;;;;;;;3.53;1.70;;;;;;;8.11;100.00;98153.09;5030741;28;20242;-65
2023/04/12 00:15:24;;;;;;;3.70;1.40;;;;;;;8.13;100.00;98140.75;5036029;28;20232;-65
2023/04/12 00:17:51;;;;;;;4.93;1.57;;;;;;;8.08;100.00;98139.53;5032313;28;20288;-65
2023/04/12 00:20:18;;;;;;;4.33;1.73;;;;;;;8.15;100.00;98130.19;5034264;28;20446;-65
2023/04/12 00:22:45;;;;;;;5.03;1.37;;;;;;;8.09;99.85;98129.00;5031397;28;20245;-65
2023/04/12 00:25:11;;;;;;;5.00;1.40;;;;;;;8.10;100.00;98125.44;5035873;28;20292;-66
2023/04/12 00:27:39;;;;;;;2.90;1.00;;;;;;;8.03;100.00;98114.00;5016460;28;20225;-65
2023/04/12 00:30:08;;;;;;;3.50;1.27;;;;;;;8.01;100.00;98112.50;5034465;28;20260;-65
2023/04/12 00:32:35;;;;;;;3.43;1.30;;;;;;;7.98;100.00;98114.44;5024327;28;20230;-65
2023/04/12 00:35:01;;;;;;;3.63;1.20;;;;;;;7.95;100.00;98106.94;5013412;28;20225;-65
2023/04/12 00:37:28;;;;;;;2.43;1.10;;;;;;;7.95;100.00;98108.72;5033900;28;20295;-65
2023/04/12 00:39:55;;;;;;;4.00;1.60;;;;;;;7.98;100.00;98101.44;5026006;28;20218;-65
2023/04/12 00:42:21;;;;;;;5.50;1.00;;;;;;;8.03;99.55;98095.81;5034388;28;20230;-65
2023/04/12 00:44:49;;;;;;;2.20;1.20;;;;;;;8.04;99.49;98097.44;5015251;28;20338;-65
2023/04/12 00:47:16;;;;;;;4.53;1.10;;;;;;;8.02;98.79;98090.75;5035396;28;20224;-65
2023/04/12 00:49:43;;;;;;;2.73;1.20;;;;;;;8.02;99.75;98091.56;5031454;28;20228;-65
2023/04/12 00:52:13;;;;;;;2.17;1.10;;;;;;;8.06;97.96;98082.53;5030783;28;20242;-65
2023/04/12 00:54:41;;;;;;;3.67;1.40;;;;;;;8.06;97.28;98072.13;5013608;28;20314;-65
2023/04/12 00:57:10;;;;;;;3.33;1.00;;;;;;;8.05;97.75;98061.84;5015268;28;20229;-65
2023/04/12 00:59:37;;;;;;;2.47;1.10;;;;;;;8.09;98.36;98064.03;5021734;28;20230;-65
2023/04/12 01:02:06;;;;;;;3.67;0.90;;;;;;;8.08;97.16;98058.97;5033698;28;20621;-65
2023/04/12 01:04:33;;;;;;;2.73;1.00;;;;;;;8.05;97.58;98052.28;5035705;28;20236;-65
2023/04/12 01:07:14;;;;;;;2.03;1.33;;;;;;;8.05;98.49;98052.28;5031457;28;20963;-65
2023/04/12 01:09:51;;;;;;;4.23;1.33;;;;;;;8.07;96.50;98047.75;5020826;28;20228;-65
2023/04/12 01:12:28;;;;;;;2.73;1.40;;;;;;;8.08;98.77;98043.38;5016807;28;20237;-65
2023/04/12 01:15:02;;;;;;;2.20;0.80;;;;;;;8.04;99.58;98027.28;5010992;28;20222;-65
2023/04/12 01:17:37;;;;;;;3.47;0.83;;;;;;;8.01;98.53;98022.38;5015231;28;20775;-65
2023/04/12 01:20:13;;;;;;;2.13;1.00;;;;;;;8.04;98.31;98016.88;5013456;28;20233;-65
2023/04/12 01:23:06;;;;;;;2.73;0.97;;;;;;;8.03;99.19;98004.00;5029051;28;20697;-65
2023/04/12 01:25:57;;;;;;;3.57;1.00;;;;;;;8.05;98.95;98004.69;5035381;28;20226;-65
2023/04/12 01:28:28;;;;;;;3.60;1.10;;;;;;;8.05;97.39;97999.47;5023464;28;20230;-65
2023/04/12 01:30:56;;;;;;;1.57;1.00;;;;;;;8.01;99.58;98001.56;5031578;28;20238;-65
2023/04/12 01:33:30;;;;;;;4.20;0.97;;;;;;;8.04;98.88;98003.03;5010265;28;20226;-65
2023/04/12 01:35:59;;;;;;;2.27;1.10;;;;;;;8.06;97.91;97998.50;5032828;28;20320;-65
2023/04/12 01:38:26;;;;;;;3.73;1.40;;;;;;;8.07;98.43;97994.94;5018121;28;20302;-65
2023/04/12 01:40:53;;;;;;;2.73;1.20;;;;;;;8.06;97.60;97991.53;5022044;28;20223;-65
2023/04/12 01:43:20;;;;;;;4.37;1.33;;;;;;;8.06;97.17;97996.75;5016327;28;20589;-65
2023/04/12 01:45:48;;;;;;;3.30;1.27;;;;;;;8.07;98.07;97985.38;5010620;28;20226;-65
2023/04/12 01:48:15;;;;;;;4.43;1.03;;;;;;;8.08;98.47;97986.19;5016297;28;20320;-65
2023/04/12 01:50:49;;;;;;;5.60;1.00;;;;;;;8.05;98.28;97974.31;5026778;28;20228;-65
2023/04/12 01:53:20;;;;;;;3.33;1.10;;;;;;;8.09;97.31;97970.44;5032470;28;20212;-65
2023/04/12 01:55:50;;;;;;;3.10;0.90;;;;;;;8.07;98.67;97966.34;5012095;28;20727;-65
2023/04/12 01:58:20;;;;;;;2.70;0.80;;;;;;;8.07;97.18;97966.34;5016661;28;20623;-65
2023/04/12 02:00:49;;;;;;;1.33;0.90;;;;;;;8.10;96.98;97961.69;5031566;28;20233;-65
2023/04/12 02:03:17;;;;;;;3.67;1.27;;;;;;;8.09;98.21;97948.81;5017050;28;20230;-65
2023/04/12 02:05:43;;;;;;;2.73;0.83;;;;;;;8.12;97.40;97941.56;5013388;28;20427;-65
2023/04/12 02:08:11;;;;;;;4.40;1.30;;;;;;;8.09;98.26;97934.06;5012497;28;20320;-65
2023/04/12 02:10:39;;;;;;;3.40;1.00;;;;;;;8.07;99.26;97933.41;5014076;28;20237;-65
2023/04/12 02:13:06;;;;;;;2.90;0.93;;;;;;;8.06;99.96;97918.75;5034792;28;20233;-65
2023/04/12 02:15:33;;;;;;;3.17;0.93;;;;;;;7.98;100.00;97908.31;5014441;28;20618;-65
2023/04/12 02:18:02;;;;;;;3.63;0.90;;;;;;;7.99;100.00;97909.94;5013475;28;20320;-65
2023/04/12 02:20:29;;;;;;;3.70;1.03;;;;;;;7.97;100.00;97904.88;5030267;28;20236;-65
2023/04/12 02:22:56;;;;;;;2.80;0.90;;;;;;;7.96;100.00;97902.44;5021194;28;20320;-65
2023/04/12 02:25:22;;;;;;;3.00;1.30;;;;;;;7.95;100.00;97893.81;5027239;28;20242;-65
2023/04/12 02:27:49;;;;;;;2.37;1.20;;;;;;;7.94;100.00;97888.78;5012880;28;20799;-65
2023/04/12 02:30:16;;;;;;;2.77;0.97;;;;;;;7.96;100.00;97876.47;5012925;28;20332;-65
2023/04/12 02:32:47;;;;;;;3.67;1.00;;;;;;;7.96;100.00;97874.66;5011542;28;20316;-65
2023/04/12 02:35:23;;;;;;;3.90;1.10;;;;;;;8.02;100.00;97869.81;5015557;28;20282;-65
2023/04/12 02:37:55;;;;;;;3.93;1.00;;;;;;;8.03;100.00;97867.09;5011417;28;20225;-65
2023/04/12 02:40:26;;;;;;;5.47;1.40;;;;;;;7.99;100.00;97865.75;5016454;28;20221;-65
2023/04/12 02:42:53;;;;;;;8.17;1.30;;;;;;;7.99;100.00;97857.97;5027758;28;20233;-65
2023/04/12 02:45:21;;;;;;;2.17;1.00;;;;;;;7.98;100.00;97856.34;5017188;28;20248;-65
2023/04/12 02:47:48;;;;;;;2.17;0.90;;;;;;;7.99;100.00;97839.78;5011564;28;20264;-65
2023/04/12 02:50:17;;;;;;;5.20;0.90;;;;;;;8.05;100.00;97840.94;5024688;28;20220;-65
2023/04/12 02:52:52;;;;;;;2.10;0.70;;;;;;;8.03;100.00;97833.31;5013200;28;20231;-65
2023/04/12 02:55:18;;;;;;;2.23;0.90;;;;;;;8.02;100.00;97828.25;5016174;28;20256;-65
2023/04/12 02:57:46;;;;;;;3.07;1.00;;;;;;;8.01;100.00;97816.22;5021795;28;20312;-65
2023/04/12 03:00:15;;;;;;;2.90;1.10;;;;;;;8.00;100.00;97807.63;5026010;28;20238;-65
2023/04/12 03:02:45;;;;;;;4.10;1.10;;;;;;;8.03;100.00;97806.47;5026778;28;20291;-66
2023/04/12 03:05:19;;;;;;;3.17;0.90;;;;;;;8.03;100.00;97794.31;5012400;28;20228;-65
2023/04/12 03:07:46;;;;;;;2.40;0.83;;;;;;;8.02;100.00;97792.69;5027948;28;20252;-65
2023/04/12 03:10:15;;;;;;;2.47;0.90;;;;;;;8.03;100.00;97789.13;5012476;28;20233;-65
2023/04/12 03:12:52;;;;;;;5.60;1.00;;;;;;;8.02;100.00;97789.25;5009855;28;20233;-65
2023/04/12 03:15:22;;;;;;;2.00;0.80;;;;;;;8.02;100.00;97784.06;5014160;28;20222;-65
2023/04/12 03:17:50;;;;;;;2.60;1.00;;;;;;;8.02;100.00;97774.50;5012890;28;20582;-65
2023/04/12 03:20:23;;;;;;;2.57;1.13;;;;;;;8.06;100.00;97759.38;5023949;28;20233;-65
2023/04/12 03:23:00;;;;;;;1.83;0.83;;;;;;;8.07;100.00;97753.22;5011403;28;20296;-65
2023/04/12 03:25:30;;;;;;;1.30;0.80;;;;;;;8.08;100.00;97753.06;5014678;28;20240;-65
2023/04/12 03:28:05;;;;;;;2.83;1.20;;;;;;;8.04;100.00;97737.94;5011155;28;20689;-65
2023/04/12 03:33:17;;;;;;;2.07;0.80;;;;;;;8.03;100.00;97726.75;4971742;28;20321;-57
2023/04/12 03:35:45;;;;;;;2.30;1.07;;;;;;;8.04;100.00;97717.97;4973326;28;20832;-58
2023/04/12 03:38:12;;;;;;;3.27;0.97;;;;;;;8.03;100.00;97726.75;4981390;28;20266;-58
2023/04/12 03:40:42;;;;;;;4.03;0.90;;;;;;;8.00;100.00;97728.81;4974623;28;20223;-56
2023/04/12 03:43:09;;;;;;;2.40;1.00;;;;;;;8.02;100.00;97726.88;4973131;28;20588;-54
2023/04/12 03:45:36;;;;;;;2.37;1.00;;;;;;;8.07;100.00;97720.25;4969556;28;20257;-57
2023/04/12 03:48:04;;;;;;;19.17;6.13;;;;;;;8.05;100.00;97711.81;4972161;28;20659;-57
2023/04/12 03:50:43;;;;;;;6.73;2.13;;;;;;;8.10;100.00;97706.94;4968920;28;20591;-57
2023/04/12 03:53:13;;;;;;;4.07;3.23;;;;;;;8.10;100.00;97696.56;4985816;28;20718;-57
2023/04/12 03:55:45;;;;;;;5.20;1.57;;;;;;;8.10;100.00;97696.56;4974091;28;20228;-56
2023/04/12 03:58:12;;;;;;;4.37;1.33;;;;;;;8.13;100.00;97695.41;4985224;28;20290;-57
2023/04/12 04:00:43;;;;;;;3.60;1.40;;;;;;;8.16;100.00;97689.91;4974542;28;20320;-56
2023/04/12 04:03:10;;;;;;;7.90;2.53;;;;;;;8.20;100.00;97690.41;4976461;28;20599;-56
2023/04/12 04:05:45;;;;;;;35.97;31.60;;;;;;;8.20;100.00;97688.59;4974423;28;20302;-57
2023/04/12 04:08:13;;;;;;;114.63;98.43;;;;;;;8.21;100.00;97679.84;4975608;28;20591;-57
2023/04/12 04:10:55;;;;;;;26.03;20.67;;;;;;;8.28;100.00;97674.81;4974617;28;20231;-57
2023/04/12 04:13:27;;;;;;;4.00;2.60;;;;;;;8.30;100.00;97667.69;4974511;28;20236;-58
2023/04/12 04:16:02;;;;;;;2.70;1.70;;;;;;;8.35;100.00;97662.81;4982970;28;20321;-56
2023/04/12 04:18:29;;;;;;;4.40;1.33;;;;;;;8.42;99.99;97662.97;4975792;28;20243;-58
2023/04/12 04:20:57;;;;;;;2.10;1.10;;;;;;;8.44;99.51;97658.44;4981283;28;20235;-57
2023/04/12 04:23:24;;;;;;;3.03;1.07;;;;;;;8.51;98.87;97656.00;4975838;28;20226;-58
2023/04/12 04:25:53;;;;;;;2.90;1.30;;;;;;;8.54;99.01;97655.69;4973095;28;20226;-58
2023/04/12 04:28:22;;;;;;;4.83;1.00;;;;;;;8.56;100.00;97649.38;4976646;28;20244;-58
2023/04/12 04:30:50;;;;;;;4.53;0.97;;;;;;;8.62;99.78;97650.50;4973339;28;20761;-58
2023/04/12 04:33:18;;;;;;;4.20;1.30;;;;;;;8.64;99.57;97653.75;4984095;28;20253;-56
2023/04/12 04:35:46;;;;;;;5.33;1.50;;;;;;;8.65;100.00;97663.19;4973332;28;20313;-58
2023/04/12 04:38:27;;;;;;;3.63;2.03;;;;;;;8.64;98.79;97652.94;4972824;28;20259;-56
2023/04/12 04:41:02;;;;;;;2.73;1.00;;;;;;;8.70;97.74;97653.09;4975403;28;20584;-57
2023/04/12 04:43:45;;;;;;;7.47;1.67;;;;;;;8.77;97.23;97653.28;4974171;28;20715;-56
2023/04/12 04:46:12;;;;;;;3.37;1.30;;;;;;;8.80;96.83;97659.94;4977193;28;20236;-58
2023/04/12 04:48:39;;;;;;;3.33;1.50;;;;;;;8.82;95.96;97651.00;4970325;28;20263;-58
2023/04/12 04:51:07;;;;;;;4.13;1.13;;;;;;;8.80;97.77;97646.91;4983498;28;20239;-58
2023/04/12 04:53:33;;;;;;;5.00;1.80;;;;;;;8.83;96.76;97644.00;4981463;28;20243;-56
2023/04/12 04:56:00;;;;;;;3.50;1.50;;;;;;;8.85;96.74;97655.03;4972849;28;20263;-57
2023/04/12 04:58:32;;;;;;;5.27;1.40;;;;;;;8.89;97.33;97651.13;4986715;28;20234;-56
2023/04/12 05:01:00;;;;;;;6.20;2.37;;;;;;;8.91;95.89;97648.38;4980227;28;20266;-58
2023/04/12 05:03:29;;;;;;;4.07;1.37;;;;;;;8.90;96.29;97638.97;4973023;28;20726;-59
2023/04/12 05:05:56;;;;;;;5.73;1.57;;;;;;;8.92;97.27;97652.63;4967170;28;20254;-59
2023/04/12 05:08:23;;;;;;;8.37;1.90;;;;;;;8.94;95.78;97633.25;4975638;28;20245;-58
2023/04/12 05:10:51;;;;;;;4.20;1.30;;;;;;;8.98;94.67;97625.94;4969674;28;20247;-58
2023/04/12 05:13:18;;;;;;;6.30;1.10;;;;;;;9.00;95.18;97618.78;4982896;28;20235;-58
2023/04/12 05:15:45;;;;;;;2.97;1.40;;;;;;;9.05;96.22;97607.84;4973340;28;20289;-58
2023/04/12 05:18:13;;;;;;;8.23;4.87;;;;;;;9.05;95.04;97603.44;4975313;28;20234;-59
2023/04/12 05:20:40;;;;;;;3.73;2.20;;;;;;;9.09;96.31;97598.72;4976627;28;20220;-58
2023/04/12 05:23:07;;;;;;;4.20;1.77;;;;;;;9.11;95.72;97594.16;4980560;28;20271;-57
2023/04/12 05:25:34;;;;;;;10.60;5.80;;;;;;;9.12;95.22;97577.56;4983833;28;20232;-58
2023/04/12 05:28:12;;;;;;;8.90;2.60;;;;;;;9.12;94.42;97575.75;4976699;28;20231;-56
2023/04/12 05:30:39;;;;;;;3.33;1.40;;;;;;;9.12;95.36;97570.56;4973895;28;20271;-58
2023/04/12 05:33:07;;;;;;;4.07;1.37;;;;;;;9.13;95.23;97571.38;4977426;28;20961;-58
2023/04/12 05:35:39;;;;;;;2.90;1.20;;;;;;;9.19;94.78;97562.91;4979922;28;20290;-59
2023/04/12 05:38:05;;;;;;;3.37;1.00;;;;;;;9.23;94.95;97564.19;4977533;28;20235;-58
2023/04/12 05:40:35;;;;;;;3.07;1.43;;;;;;;9.27;96.16;97547.25;4975482;28;20267;-56
2023/04/12 05:43:02;;;;;;;3.03;1.33;;;;;;;9.34;94.33;97546.56;4978383;28;20700;-58
2023/04/12 05:45:31;;;;;;;3.33;1.20;;;;;;;9.36;94.71;97547.22;4996455;28;20337;-59
2023/04/12 05:48:01;;;;;;;4.57;1.37;;;;;;;9.40;94.54;97562.31;4991290;28;20234;-58
2023/04/12 05:50:28;;;;;;;5.53;1.37;;;;;;;9.42;94.07;97557.75;4977144;28;20227;-57
2023/04/12 05:52:56;;;;;;;3.77;1.30;;;;;;;9.42;96.30;97556.97;4975903;28;20322;-58
2023/04/12 05:55:27;;;;;;;4.63;1.37;;;;;;;9.42;94.28;97533.53;4985954;28;20227;-57
2023/04/12 05:57:54;;;;;;;5.57;1.40;;;;;;;9.48;93.93;97558.06;4974170;28;20239;-59
2023/04/12 06:00:22;;;;;;;3.30;1.90;;;;;;;9.44;95.11;97542.78;4975709;28;20231;-58
2023/04/12 06:02:49;;;;;;;3.75;1.55;;;;;;;9.47;95.58;97549.44;4981167;28;20443;-57
2023/04/12 06:05:16;;;;;;;4.23;1.50;;;;;;;9.49;95.91;97541.44;4979554;28;20234;-58
2023/04/12 06:07:46;;;;;;;3.27;1.33;;;;;;;9.48;96.97;97543.25;4973668;28;20776;-58
2023/04/12 06:10:16;;;;;;;3.93;1.60;;;;;;;9.44;96.08;97540.16;4989508;28;20235;-59
2023/04/12 06:12:46;;;;;;;3.67;2.40;;;;;;;9.48;96.32;97539.81;4981979;28;20258;-58
2023/04/12 06:15:14;;;;;;;2.77;1.33;;;;;;;9.50;96.79;97530.88;4980713;28;20911;-58
2023/04/12 06:17:41;;;;;;;5.47;1.50;;;;;;;9.49;98.44;97523.22;4975117;28;20443;-57
2023/04/12 06:20:08;;;;;;;6.93;3.60;;;;;;;9.54;97.42;97513.91;4992358;28;20241;-56
2023/04/12 06:22:36;;;;;;;13.20;7.47;;;;;;;9.64;95.95;97502.44;4977309;28;20238;-57
2023/04/12 06:25:03;;;;;;;29.03;12.20;;;;;;;9.62;96.50;97496.59;4976648;28;20264;-55
2023/04/12 06:27:31;;;;;;;5.60;2.80;;;;;;;9.66;97.12;97503.09;4974653;28;20247;-58
2023/04/12 06:29:58;;;;;;;8.83;4.20;;;;;;;9.66;96.49;97484.84;4975606;28;20242;-57
2023/04/12 06:32:25;;;;;;;7.90;2.50;;;;;;;9.71;96.28;97487.75;4977682;28;20243;-60
2023/04/12 06:34:55;;;;;;;3.40;2.20;;;;;;;9.69;94.78;97484.50;4975655;28;20310;-60
2023/04/12 06:37:22;;;;;;;7.43;2.10;;;;;;;9.66;99.00;97480.47;4992655;28;20533;-60
2023/04/12 06:39:48;;;;;;;4.43;1.57;;;;;;;9.70;95.20;97478.31;4989993;28;20231;-59
2023/04/12 06:42:15;;;;;;;4.73;1.80;;;;;;;9.79;94.00;97472.06;4993266;28;20310;-59
2023/04/12 06:44:43;;;;;;;2.97;1.63;;;;;;;9.85;93.45;97466.16;4989119;28;20759;-60
2023/04/12 06:47:10;;;;;;;3.73;1.63;;;;;;;9.88;93.62;97457.19;4992602;28;20297;-60
2023/04/12 06:49:36;;;;;;;4.47;1.60;;;;;;;9.94;91.77;97466.06;4989380;28;20236;-60
2023/04/12 06:52:03;;;;;;;7.40;2.80;;;;;;;9.95;91.20;97444.25;4989779;28;20243;-59
2023/04/12 06:54:29;;;;;;;3.67;2.00;;;;;;;9.89;91.74;97435.34;4991023;28;20236;-59
2023/04/12 06:56:56;;;;;;;3.43;1.50;;;;;;;10.04;87.57;97430.97;4980308;28;20235;-60
2023/04/12 06:59:23;;;;;;;3.77;1.97;;;;;;;10.07;88.56;97440.22;4990683;28;20236;-61
2023/04/12 07:01:51;;;;;;;5.70;2.17;;;;;;;10.12;88.23;97431.84;4973166;28;20793;-60
2023/04/12 07:04:17;;;;;;;4.20;1.93;;;;;;;10.13;86.81;97436.09;4992905;28;20569;-60
2023/04/12 07:06:44;;;;;;;3.80;1.63;;;;;;;10.17;87.76;97425.13;4986436;28;20237;-60
2023/04/12 07:09:11;;;;;;;7.77;2.00;;;;;;;10.17;86.90;97419.09;4991125;28;20233;-59
2023/04/12 07:11:37;;;;;;;3.73;1.60;;;;;;;10.24;87.87;97422.63;4989549;28;20312;-59
2023/04/12 07:14:04;;;;;;;3.20;1.73;;;;;;;10.23;87.09;97422.81;4991257;28;20239;-60
2023/04/12 07:16:31;;;;;;;7.53;2.00;;;;;;;10.33;84.67;97407.72;4990406;28;20240;-60
2023/04/12 07:18:59;;;;;;;3.97;2.00;;;;;;;10.44;86.31;97396.03;4988799;28;20323;-60
2023/04/12 07:21:26;;;;;;;4.60;1.70;;;;;;;10.43;87.66;97384.81;4993091;28;20289;-60
2023/04/12 07:23:53;;;;;;;5.50;1.77;;;;;;;10.40;84.61;97374.72;4988715;28;20228;-59
2023/04/12 07:26:20;;;;;;;3.93;1.40;;;;;;;10.45;84.23;97385.44;4972177;28;20242;-60
2023/04/12 07:28:47;;;;;;;6.47;1.73;;;;;;;10.36;87.40;97403.91;4986830;28;20235;-60
2023/04/12 07:31:13;;;;;;;3.73;1.63;;;;;;;10.28;84.58;97370.94;4992356;28;20232;-60
2023/04/12 07:33:40;;;;;;;5.80;1.83;;;;;;;10.26;86.57;97375.50;4993791;28;20234;-59
2023/04/12 07:36:08;;;;;;;6.00;2.03;;;;;;;10.24;88.32;97372.28;4995422;28;20225;-60
2023/04/12 07:38:35;;;;;;;6.90;2.47;;;;;;;10.14;90.81;97364.69;4993927;28;20282;-60
2023/04/12 07:41:02;;;;;;;4.93;1.60;;;;;;;10.11;90.99;97365.88;4992093;28;20236;-60
2023/04/12 07:43:28;;;;;;;5.93;1.97;;;;;;;10.22;90.08;97361.22;4994522;28;20242;-61
2023/04/12 07:45:55;;;;;;;3.87;1.70;;;;;;;10.16;91.28;97357.50;4989277;28;20739;-56
2023/04/12 07:48:21;;;;;;;7.27;1.67;;;;;;;10.29;87.84;97362.91;4995077;28;20688;-58
2023/04/12 07:50:48;;;;;;;4.67;1.60;;;;;;;10.38;89.74;97379.28;4991201;28;20238;-58
2023/04/12 07:53:20;;;;;;;6.43;2.30;;;;;;;10.41;90.78;97378.97;4994486;28;20732;-56
2023/04/12 07:55:47;;;;;;;6.73;1.93;;;;;;;10.45;88.32;97380.22;4991392;28;20224;-57
2023/04/12 07:58:13;;;;;;;4.60;2.13;;;;;;;10.50;87.52;97379.66;4996729;28;20322;-57
2023/04/12 08:00:40;;;;;;;4.27;1.80;;;;;;;10.49;86.13;97383.25;4993497;28;20243;-57
2023/04/12 08:03:07;;;;;;;4.90;1.70;;;;;;;10.54;85.96;97383.53;4996062;28;20246;-57
2023/04/12 08:05:34;;;;;;;4.23;1.70;;;;;;;10.67;86.28;97366.44;4995934;28;20233;-57
2023/04/12 08:08:00;;;;;;;3.57;1.77;;;;;;;10.59;87.66;97377.78;4990869;28;20224;-56
2023/04/12 08:10:29;;;;;;;11.33;1.93;;;;;;;10.56;88.22;97368.50;4994061;28;20286;-57
2023/04/12 08:12:55;;;;;;;6.80;1.30;;;;;;;10.57;88.08;97362.28;4992960;28;20229;-54
2023/04/12 08:15:22;;;;;;;7.40;1.87;;;;;;;10.50;88.93;97358.78;4993870;28;20236;-57
2023/04/12 08:17:48;;;;;;;5.77;1.60;;;;;;;10.46;90.23;97367.97;4992506;28;20235;-56
2023/04/12 08:20:15;;;;;;;6.47;2.10;;;;;;;10.36;91.95;97368.22;4993458;28;20234;-57
2023/04/12 08:22:42;;;;;;;6.20;1.90;;;;;;;10.36;92.11;97356.97;4991768;28;20243;-56
2023/04/12 08:25:09;;;;;;;4.10;1.83;;;;;;;10.31;92.05;97354.91;4992459;28;20296;-57
2023/04/12 08:27:41;;;;;;;4.43;2.13;;;;;;;10.22;92.07;97356.00;4993698;28;20235;-56
2023/04/12 08:30:08;;;;;;;6.73;2.07;;;;;;;10.26;94.11;97341.59;4993093;28;20301;-57
2023/04/12 08:32:36;;;;;;;8.07;2.10;;;;;;;10.29;95.10;97356.91;4976049;28;20238;-57
2023/04/12 08:35:02;;;;;;;4.00;1.50;;;;;;;10.38;95.32;97355.00;4989930;28;20252;-56
2023/04/12 08:37:30;;;;;;;7.03;1.70;;;;;;;10.36;94.81;97346.53;4993853;28;20235;-57
2023/04/12 08:39:59;;;;;;;8.17;3.20;;;;;;;10.39;93.74;97349.63;4989402;28;20235;-56
2023/04/12 08:42:25;;;;;;;6.73;1.90;;;;;;;10.50;93.67;97348.34;4995913;28;20775;-55
2023/04/12 08:44:53;;;;;;;7.67;1.60;;;;;;;10.50;92.96;97358.78;4989777;28;20739;-56
2023/04/12 08:47:20;;;;;;;6.07;1.57;;;;;;;10.58;92.30;97373.56;4996042;28;20236;-56
2023/04/12 08:49:47;;;;;;;4.47;1.60;;;;;;;10.59;91.45;97357.69;4991935;28;20593;-56
2023/04/12 08:52:14;;;;;;;5.10;2.50;;;;;;;10.53;93.31;97373.28;4994563;28;20242;-55
2023/04/12 08:54:41;;;;;;;6.13;1.80;;;;;;;10.45;93.21;97376.78;4991902;28;20226;-57
2023/04/12 08:57:08;;;;;;;5.77;3.80;;;;;;;10.48;93.74;97385.06;4992536;28;20235;-56
2023/04/12 08:59:37;;;;;;;4.70;1.63;;;;;;;10.51;91.19;97396.16;4994104;28;20300;-57
2023/04/12 09:02:05;;;;;;;3.17;1.60;;;;;;;10.51;92.64;97386.50;4992649;28;20247;-56
2023/04/12 09:04:32;;;;;;;4.37;2.13;;;;;;;10.58;94.46;97384.78;4991620;28;20256;-57
2023/04/12 09:06:58;;;;;;;7.93;3.20;;;;;;;10.63;95.99;97364.19;4991353;28;20741;-57
2023/04/12 09:09:41;;;;;;;3.93;1.50;;;;;;;10.69;94.41;97346.97;4993488;28;20240;-56
2023/04/12 09:12:08;;;;;;;5.90;1.67;;;;;;;10.51;94.36;97349.97;4991874;28;20240;-57
2023/04/12 09:14:34;;;;;;;2.60;1.53;;;;;;;10.62;94.40;97351.28;4994798;28;20242;-56
2023/04/12 09:17:01;;;;;;;5.60;1.83;;;;;;;10.71;94.08;97349.41;4991115;28;20685;-57
2023/04/12 09:19:33;;;;;;;3.73;1.73;;;;;;;10.77;92.51;97343.47;4978974;28;20716;-56
2023/04/12 09:22:00;;;;;;;6.70;1.50;;;;;;;10.63;94.92;97352.91;4991994;28;20313;-56
2023/04/12 09:24:27;;;;;;;4.77;1.70;;;;;;;10.67;94.37;97356.00;4993869;28;20229;-57
2023/04/12 09:27:02;;;;;;;5.13;1.80;;;;;;;10.82;95.14;97342.91;4990386;28;20228;-58
2023/04/12 09:29:29;;;;;;;4.07;1.37;;;;;;;10.88;95.42;97350.81;4992509;28;20222;-58
2023/04/12 09:31:57;;;;;;;4.07;1.70;;;;;;;10.94;94.76;97349.25;4989414;28;20233;-57
2023/04/12 09:34:23;;;;;;;3.70;1.50;;;;;;;10.67;94.96;97359.38;4993393;28;20232;-57
2023/04/12 09:36:51;;;;;;;2.53;1.17;;;;;;;10.90;93.24;97358.44;4990626;28;20238;-56
2023/04/12 09:39:18;;;;;;;1.77;1.10;;;;;;;10.93;91.75;97371.97;4995147;28;20706;-58
2023/04/12 09:41:45;;;;;;;2.27;1.20;;;;;;;10.90;92.86;97361.88;4991293;28;20227;-57
2023/04/12 09:44:28;;;;;;;3.53;1.20;;;;;;;10.82;94.33;97346.31;4993125;28;20229;-57
2023/04/12 09:46:56;;;;;;;3.37;0.90;;;;;;;10.98;94.53;97337.44;4990656;28;20242;-57
2023/04/12 09:49:36;;;;;;;2.80;0.90;;;;;;;11.10;93.89;97347.41;4994240;28;20227;-58
2023/04/12 09:52:05;;;;;;;2.90;0.97;;;;;;;11.27;91.98;97330.50;4992788;28;20700;-56
2023/04/12 09:54:37;;;;;;;1.43;0.60;;;;;;;11.31;90.66;97336.97;4989607;28;20244;-57
2023/04/12 09:57:06;;;;;;;5.03;1.10;;;;;;;11.39;92.00;97343.06;4989278;28;20846;-57
2023/04/12 09:59:36;;;;;;;1.20;0.73;;;;;;;11.56;89.51;97339.19;4995963;28;20798;-57
2023/04/12 10:02:07;;;;;;;2.10;1.67;;;;;;;11.51;89.25;97342.34;4991328;28;20345;-58
2023/04/12 10:04:37;;;;;;;1.53;0.97;;;;;;;11.71;88.33;97346.13;4992566;28;20733;-57
2023/04/12 10:07:05;;;;;;;3.37;1.03;;;;;;;11.63;89.57;97331.38;4975086;28;20267;-57
2023/04/12 10:09:33;;;;;;;8.60;4.20;;;;;;;11.70;88.48;97336.66;4977608;28;20231;-56
2023/04/12 10:12:02;;;;;;;3.37;1.67;;;;;;;11.91;88.54;97326.16;4992107;28;20346;-57
2023/04/12 10:14:29;;;;;;;2.13;0.90;;;;;;;11.88;87.86;97302.22;4992571;28;20231;-57
2023/04/12 10:16:57;;;;;;;4.67;1.10;;;;;;;12.14;85.13;97325.13;4988636;28;20233;-57
2023/04/12 10:19:26;;;;;;;2.53;1.50;;;;;;;12.13;85.86;97330.56;4983460;28;20433;-57
2023/04/12 10:21:53;;;;;;;1.33;0.90;;;;;;;12.08;84.88;97321.47;4975639;28;20391;-57
2023/04/12 10:24:23;;;;;;;3.63;0.93;;;;;;;12.27;85.68;97313.09;4993396;28;20247;-57
2023/04/12 10:26:50;;;;;;;1.67;0.70;;;;;;;12.44;82.82;97306.53;4988355;28;20246;-57
2023/04/12 10:29:25;;;;;;;1.20;1.10;;;;;;;12.55;81.85;97302.53;4992446;28;20248;-57
2023/04/12 10:31:52;;;;;;;2.30;1.00;;;;;;;12.59;83.20;97309.00;4986532;28;20244;-57
2023/04/12 10:34:23;;;;;;;3.47;1.20;;;;;;;12.67;81.78;97302.81;4991775;28;20235;-58
2023/04/12 10:36:54;;;;;;;3.13;0.80;;;;;;;12.43;82.73;97297.09;4988131;28;20232;-56
2023/04/12 10:39:39;;;;;;;2.27;0.90;;;;;;;12.40;80.95;97295.66;4991695;28;20228;-57
2023/04/12 10:42:21;;;;;;;4.00;1.20;;;;;;;12.47;81.70;97279.16;4989482;28;20290;-57
2023/04/12 10:44:49;;;;;;;1.80;0.87;;;;;;;12.29;80.95;97279.72;4989196;28;20258;-57
2023/04/12 10:47:16;;;;;;;3.07;0.90;;;;;;;12.34;81.53;97275.50;4990203;28;20228;-56
2023/04/12 10:50:23;;;;;;;1.67;0.93;;;;;;;12.35;81.84;97290.19;4989961;28;20236;-57
2023/04/12 10:53:24;;;;;;;1.67;0.80;;;;;;;12.89;81.87;97272.03;4988057;28;20229;-57
2023/04/12 10:55:51;;;;;;;1.47;0.73;;;;;;;13.04;76.71;97287.56;4988446;28;20308;-57
2023/04/12 10:58:57;;;;;;;2.27;0.70;;;;;;;13.21;74.87;97268.81;4978939;28;20318;-57
2023/04/12 11:01:25;;;;;;;1.13;0.53;;;;;;;13.51;77.23;97282.34;4975304;28;20719;-58
2023/04/12 11:04:15;;;;;;;1.20;0.70;;;;;;;14.23;73.35;97263.22;4988162;28;20255;-57
2023/04/12 11:06:58;;;;;;;3.07;0.73;;;;;;;14.18;73.07;97263.03;4974670;28;21122;-57
2023/04/12 11:09:44;;;;;;;2.00;0.80;;;;;;;14.52;73.88;97274.22;4993344;28;20249;-58
2023/04/12 11:12:27;;;;;;;3.00;1.30;;;;;;;14.15;72.97;97260.84;4983299;28;20242;-58
2023/04/12 11:15:00;;;;;;;1.50;0.87;;;;;;;14.36;72.66;97258.94;4993157;28;20229;-58
2023/04/12 11:17:31;;;;;;;1.10;0.50;;;;;;;13.62;71.69;97259.97;4982024;28;20249;-59
2023/04/12 11:19:59;;;;;;;1.60;0.97;;;;;;;13.74;74.04;97241.78;4992227;28;20836;-57
2023/04/12 11:22:29;;;;;;;1.90;0.70;;;;;;;13.93;72.73;97258.47;4996871;28;20245;-57
2023/04/12 11:24:57;;;;;;;1.80;1.17;;;;;;;13.71;72.96;97223.84;4990162;28;20252;-57
2023/04/12 11:27:25;;;;;;;4.20;2.07;;;;;;;13.92;71.25;97248.19;4996152;28;20241;-56
2023/04/12 11:29:55;;;;;;;2.10;0.80;;;;;;;13.78;71.90;97243.00;4991836;28;20237;-58
2023/04/12 11:32:23;;;;;;;1.03;0.80;;;;;;;13.67;73.03;97248.88;4994667;28;20789;-57
2023/04/12 11:34:50;;;;;;;1.10;0.70;;;;;;;13.86;70.74;97262.94;4992809;28;20253;-58
2023/04/12 11:37:18;;;;;;;1.90;0.63;;;;;;;13.83;71.85;97256.28;4994159;28;20622;-58
2023/04/12 11:39:48;;;;;;;5.77;3.63;;;;;;;13.99;71.01;97234.03;4992868;28;20226;-58
2023/04/12 11:42:16;;;;;;;1.20;0.70;;;;;;;14.15;68.57;97227.53;4994599;28;20326;-58
2023/04/12 11:44:43;;;;;;;2.53;0.53;;;;;;;14.41;70.46;97222.38;4991509;28;20233;-58
2023/04/12 11:47:16;;;;;;;0.77;0.50;;;;;;;14.54;68.29;97224.94;4995153;28;20223;-55
2023/04/12 11:49:44;;;;;;;1.57;0.60;;;;;;;14.42;69.68;97231.84;4992119;28;20230;-56